Home > Products > Valid Products > TAF

000
FTUS44 KEWX 290500
TAFSAT
TAF
KSAT 290520Z 2906/3012 17012KT P6SM FEW250
     FM291000 20005KT P6SM SCT080 SCT200
     FM291700 15008KT P6SM SCT080 SCT200
     FM292100 14009KT P6SM BKN080 BKN200
     FM300400 16009KT P6SM SCT080 BKN200=



000
FTUS44 KEWX 290500
TAFAUS
TAF
KAUS 290520Z 2906/3012 02005KT P6SM BKN200
     FM291000 VRB03KT P6SM SCT080 BKN200
     FM292000 13007KT P6SM BKN080 BKN200
     FM300400 18004KT P6SM BKN080=



000
FTUS44 KEWX 290500
TAFDRT
TAF
KDRT 290520Z 2906/3006 09007KT P6SM SKC
     FM291000 11007KT P6SM FEW080 SCT200
     FM291700 14010G20KT P6SM FEW080 SCT200
     FM300000 12007KT P6SM SCT200=



000
FTUS44 KEWX 290300 AAA
TAFDRT
TAF AMD
KDRT 290337Z 2904/2924 08007KT P6SM SKC
     FM291000 11007KT P6SM SCT080 SCT200
     FM291700 14010G20KT P6SM SCT080 SCT200=



000
FTUS44 KEWX 290300 AAA
TAFAUS
TAF AMD
KAUS 290337Z 2904/3006 07005KT P6SM BKN250
     FM291000 03005KT P6SM SCT080 BKN200
     FM292100 14007KT P6SM BKN080 BKN200
     FM300400 18004KT P6SM BKN080=



000
FTUS44 KEWX 290300 AAA
TAFSAT
TAF AMD
KSAT 290337Z 2904/3006 16012KT P6SM FEW250
     FM291000 20005KT P6SM SCT080 SCT200
     FM291700 15008KT P6SM SCT080 SCT200
     FM292100 14009KT P6SM BKN080 BKN200
     FM300400 16009KT P6SM BKN080=



000
FTUS44 KEWX 282300
TAFDRT
TAF
KDRT 282337Z 2900/2924 11010KT P6SM SKC
     FM291000 11007KT P6SM SCT080
     FM291700 14010G20KT P6SM SCT080 SCT200=



000
FTUS44 KEWX 282300
TAFSAT
TAF
KSAT 282337Z 2900/3006 15010KT P6SM FEW070
     FM291000 22005KT P6SM SCT080 SCT200
     FM291700 15008KT P6SM SCT080 SCT200
     FM292100 14009KT P6SM BKN080 BKN200
     FM300400 16009KT P6SM BKN080=



000
FTUS44 KEWX 282300
TAFAUS
TAF
KAUS 282337Z 2900/3006 03007KT P6SM SCT080 SCT200
     FM290200 VRB03KT P6SM FEW080 SCT200
     FM291000 35005KT P6SM SCT080 BKN200
     FM292100 14007KT P6SM BKN080 BKN200
     FM300400 18004KT P6SM BKN080=



000
FTUS44 KEWX 281700
TAFAUS
TAF
KAUS 281722Z 2818/2924 17008KT P6SM FEW060 FEW250
     FM290800 VRB03KT P6SM FEW070=



000
FTUS44 KEWX 281700
TAFDRT
TAF
KDRT 281722Z 2818/2918 13010KT P6SM FEW250
     FM291100 10006KT P6SM SKC=



000
FTUS44 KEWX 281700
TAFSAT
TAF
KSAT 281722Z 2818/2924 17008KT P6SM SCT028
     FM291000 20005KT P6SM FEW070
     FM291600 17007KT P6SM FEW070=



000
FTUS44 KEWX 281200 AAA
TAFAUS
TAF AMD
KAUS 281245Z 2813/2918 VRB04KT P6SM BKN011
     FM281300 20007KT P6SM SCT011
     FM282100 16008KT P6SM FEW070=



000
FTUS44 KEWX 281100
TAFSAT
TAF
KSAT 281120Z 2812/2918 18008KT P6SM BKN012
     FM281400 18010KT P6SM SCT012
     FM282100 14010KT P6SM FEW070=



000
FTUS44 KEWX 281100
TAFDRT
TAF
KDRT 281120Z 2812/2912 11008KT P6SM SKC
     FM281700 14012KT P6SM SKC
     FM290300 11005KT P6SM SKC=



000
FTUS44 KEWX 281100
TAFAUS
TAF
KAUS 281120Z 2812/2918 VRB04KT P6SM BKN011
     FM281400 20007KT P6SM SCT011
     FM282100 16008KT P6SM FEW070=



000
FTUS44 KEWX 281100 AAA
TAFAUS
TAF AMD
KAUS 281100Z 2811/2912 VRB05KT P6SM BKN011
     FM281300 18010KT P6SM SCT011=



000
FTUS44 KEWX 280900 AAA
TAFSAT
TAF AMD
KSAT 280927Z 2809/2912 16007KT P6SM SKC
     FM281000 16006KT P6SM BKN012
     FM281200 18010KT P6SM SCT012
     FM282000 14010KT P6SM FEW060=



000
FTUS44 KEWX 280500
TAFAUS
TAF
KAUS 280520Z 2806/2912 17010KT P6SM FEW060
     FM280700 21005KT P6SM SCT010
     FM281400 18010KT P6SM FEW050=



000
FTUS44 KEWX 280500
TAFSAT
TAF
KSAT 280520Z 2806/2912 15015KT P6SM FEW060
     FM280700 18005KT P6SM SCT010
     FM281400 18010KT P6SM FEW050
     FM282000 14010KT P6SM FEW060=



000
FTUS44 KEWX 280500
TAFDRT
TAF
KDRT 280520Z 2806/2906 11010KT P6SM SKC
     FM281700 14012KT P6SM SKC
     FM290300 11005KT P6SM SKC=



000
FTUS44 KEWX 272300
TAFAUS
TAF
KAUS 272321Z 2800/2906 17012KT P6SM FEW060
     FM280500 18005KT P6SM SCT010
     FM281200 18005KT 4SM BR SCT010
     FM281400 19010KT P6SM FEW050=



000
FTUS44 KEWX 272300
TAFDRT
TAF
KDRT 272321Z 2800/2824 14012KT P6SM SKC
     FM280200 11010KT P6SM SKC
     FM281700 14012KT P6SM SKC=



000
FTUS44 KEWX 272300
TAFSAT
TAF
KSAT 272321Z 2800/2906 15015KT P6SM FEW060
     FM280500 17005KT P6SM SCT010
     FM281400 18010KT P6SM FEW050
     FM282000 14010KT P6SM FEW060=



000
FTUS44 KEWX 271700
TAFSAT
TAF
KSAT 271729Z 2718/2824 17010KT P6SM FEW050
     FM272100 15015KT P6SM FEW060
     FM280500 14006KT P6SM SCT010
     FM281400 18009KT P6SM FEW050
     FM282000 14009KT P6SM FEW060=



000
FTUS44 KEWX 271700
TAFAUS
TAF
KAUS 271729Z 2718/2824 20014KT P6SM FEW050
     FM272000 17014KT P6SM FEW060
     FM280500 18005KT P6SM SCT010
     FM281400 20010KT P6SM FEW050
     FM282000 16010KT P6SM FEW060=



000
FTUS44 KEWX 271700
TAFDRT
TAF
KDRT 271729Z 2718/2818 14016KT P6SM SKC
     FM280200 11010KT P6SM SKC
     FM281700 14011KT P6SM SKC=



000
FTUS44 KEWX 271600 AAE
TAFAUS
TAF AMD
KAUS 271604Z 2716/2818 20014KT P6SM FEW030
     FM272000 17014KT P6SM FEW060
     FM280500 19005KT P6SM SCT010=



000
FTUS44 KEWX 271400 AAD
TAFAUS
TAF AMD
KAUS 271431Z 2715/2818 17014KT P6SM SCT050
     FM280500 19005KT P6SM SCT010=



000
FTUS44 KEWX 271400 AAC
TAFAUS
TAF AMD
KAUS 271407Z 2714/2818 18013KT 6SM BR BKN007
     FM271500 17013KT P6SM BKN018
     FM271700 17014KT P6SM SCT050
     FM280500 19005KT P6SM SCT010=



000
FTUS44 KEWX 271300 AAA
TAFAUS
TAF AMD
KAUS 271316Z 2713/2818 18006KT 4SM BR SCT007
      TEMPO 2713/2714 BKN007
     FM271400 16014KT P6SM FEW050
     FM280500 19005KT P6SM SCT010=



000
FTUS44 KEWX 271200 AAA
TAFSAT
TAF AMD
KSAT 271218Z 2712/2818 13010KT P6SM BKN015
     FM271500 17010KT P6SM FEW050
     FM272300 16015KT P6SM FEW060
     FM280700 18005KT P6SM SCT010=



000
FTUS44 KEWX 271200 AAA
TAFAUS
TAF AMD
KAUS 271218Z 2712/2818 17010KT 4SM BR SCT015
     FM271400 16014KT P6SM FEW050
     FM280500 19005KT P6SM SCT010=



000
FTUS44 KEWX 271100
TAFAUS
TAF
KAUS 271120Z 2712/2818 17010KT 6SM BR SCT015
     FM271600 16014KT P6SM FEW050
     FM280500 19005KT P6SM SCT010=



000
FTUS44 KEWX 271100
TAFSAT
TAF
KSAT 271120Z 2712/2818 17010KT P6SM FEW010
      TEMPO 2712/2714 BKN015
     FM271500 17010KT P6SM FEW050
     FM272300 16015KT P6SM FEW060
     FM280700 18005KT P6SM SCT010=



000
FTUS44 KEWX 271100
TAFDRT
TAF
KDRT 271120Z 2712/2812 11013KT P6SM SKC
     FM271700 14018KT P6SM SKC
     FM280200 12010KT P6SM SKC=



000
FTUS44 KEWX 271000 AAA
TAFSAT
TAF AMD
KSAT 271050Z 2711/2812 17010KT P6SM SCT010
      TEMPO 2711/2714 BKN015
     FM271500 17010KT P6SM FEW050
     FM272100 16015KT P6SM FEW060
     FM280500 18005KT P6SM SCT010=



000
FTUS44 KEWX 271000 AAB
TAFAUS
TAF AMD
KAUS 271050Z 2711/2812 17010KT P6SM SCT015
     FM271400 19012KT P6SM FEW050
     FM280100 16012KT P6SM FEW050
     FM280500 19005KT P6SM SCT010=



000
FTUS44 KEWX 270600 AAA
TAFAUS
TAF AMD
KAUS 270642Z 2707/2812 17010KT P6SM BKN015
     FM271400 19012KT P6SM FEW050
     FM280100 16012KT P6SM FEW050
     FM280500 19005KT P6SM SCT010=



000
FTUS44 KEWX 270500
TAFDRT
TAF
KDRT 270520Z 2706/2806 11010KT P6SM SKC
     FM271400 14015KT P6SM SKC
     FM280200 11010KT P6SM SKC=



000
FTUS44 KEWX 270500
TAFSAT
TAF
KSAT 270520Z 2706/2812 15015KT P6SM FEW250
     FM270700 17010KT P6SM SCT010
     FM271500 17010KT P6SM FEW050
     FM272100 16015KT P6SM FEW060
     FM280500 18005KT P6SM SCT010=



000
FTUS44 KEWX 270500
TAFAUS
TAF
KAUS 270520Z 2706/2812 17010KT P6SM FEW060
     FM271000 19005KT P6SM SCT010
     FM271400 19012KT P6SM FEW050
     FM280100 16012KT P6SM FEW050
     FM280500 19005KT P6SM SCT010=



000
FTUS44 KEWX 270100 AAA
TAFDRT
TAF AMD
KDRT 270158Z 2702/2724 11010KT P6SM SKC
     FM271400 14015KT P6SM SKC=



000
FTUS44 KEWX 262300
TAFSAT
TAF
KSAT 262336Z 2700/2806 16015KT P6SM FEW080
     FM270700 18010KT P6SM SCT010
     FM271500 18010KT P6SM FEW050
     FM272100 16015KT P6SM FEW060=



000
FTUS44 KEWX 262300
TAFDRT
TAF
KDRT 262336Z 2700/2724 14015G25KT P6SM FEW250
     FM270300 11010KT P6SM SKC
     FM271400 14015KT P6SM SKC=



000
FTUS44 KEWX 262300
TAFAUS
TAF
KAUS 262336Z 2700/2806 17010KT P6SM FEW060
     FM271000 19005KT P6SM SCT010
     FM271400 19012KT P6SM FEW050
     FM280100 16012KT P6SM FEW050=



000
FTUS44 KEWX 261700
TAFAUS
TAF
KAUS 261725Z 2618/2724 17014KT P6SM FEW060 FEW250
     FM270300 16008KT P6SM FEW070
     FM271000 18007KT P6SM SCT010
     FM271400 18012KT P6SM FEW050=



000
FTUS44 KEWX 261700
TAFSAT
TAF
KSAT 261725Z 2618/2724 18011KT P6SM FEW050
     FM262100 16014KT P6SM FEW060
     FM270700 18008KT P6SM SCT010
     FM271500 18010KT P6SM FEW050
     FM272100 16012KT P6SM FEW060=



000
FTUS44 KEWX 261700
TAFDRT
TAF
KDRT 261725Z 2618/2718 14015KT P6SM FEW250
     FM270200 11010KT P6SM SKC
     FM271400 14013KT P6SM SKC=



000
FTUS44 KEWX 261500 AAA
TAFDRT
TAF AMD
KDRT 261524Z 2615/2712 14014KT P6SM FEW250
     FM261700 14017KT P6SM FEW050
     FM270200 12010KT P6SM SKC=



000
FTUS44 KEWX 261500 AAB
TAFAUS
TAF AMD
KAUS 261523Z 2615/2718 19014KT P6SM FEW040 SCT250
     FM261900 17014KT P6SM FEW060
     FM270500 16008KT P6SM FEW040
     FM271000 18007KT P6SM BKN010
     FM271400 18010KT P6SM SCT025=



000
FTUS44 KEWX 261200 AAA
TAFAUS
TAF AMD
KAUS 261221Z 2612/2718 18008KT P6SM FEW015
      TEMPO 2612/2614 3SM BR
     FM261900 18014KT P6SM FEW060
     FM270500 16008KT P6SM FEW040
     FM271000 18007KT P6SM BKN010
     FM271400 18010KT P6SM SCT025=



000
FTUS44 KEWX 261100
TAFSAT
TAF
KSAT 261120Z 2612/2718 17008KT P6SM SCT015
     FM261900 18016KT P6SM FEW060
     FM270900 18007KT P6SM BKN010
     FM271500 18010KT P6SM SCT025=



000
FTUS44 KEWX 261100
TAFDRT
TAF
KDRT 261120Z 2612/2712 10008KT P6SM FEW250
     FM261700 14017KT P6SM FEW050
     FM270200 12010KT P6SM SKC=



000
FTUS44 KEWX 261100
TAFAUS
TAF
KAUS 261120Z 2612/2718 18008KT P6SM FEW015
     FM261900 18014KT P6SM FEW060
     FM270500 16008KT P6SM FEW040
     FM271000 18007KT P6SM BKN010
     FM271400 18010KT P6SM SCT025=



000
FTUS44 KEWX 260900 AAA
TAFAUS
TAF AMD
KAUS 260900Z 2609/2712 17008KT P6SM FEW250
     FM261200 19006KT P6SM BKN011
     FM261500 20011KT P6SM FEW035
     FM262100 16012KT P6SM FEW060
     FM270800 19007KT P6SM BKN010=



000
FTUS44 KEWX 260900 AAB
TAFSAT
TAF AMD
KSAT 260900Z 2609/2712 16012KT P6SM FEW250
     FM261100 18007KT P6SM BKN011
     FM261500 18010KT P6SM FEW035
     FM262100 15013KT P6SM FEW060
     FM270800 17007KT P6SM BKN011=



000
FTUS44 KEWX 260800 AAA
TAFSAT
TAF AMD
KSAT 260800Z 2608/2712 16012KT P6SM FEW250
     FM260900 18007KT P6SM BKN011
     FM261500 18010KT P6SM FEW035
     FM262100 15013KT P6SM FEW060
     FM270800 17007KT P6SM BKN011=



    US Dept of Commerce
    National Oceanic and Atmospheric Administration
    National Weather Service
    1325 East West Highway
    Silver Spring, MD 20910
    Page Author: NWS Internet Services Team
Disclaimer
Information Quality
Credits
Glossary
Privacy Policy
Freedom of Information Act (FOIA)
About Us
Career Opportunities